Duluth, MN

12:09 PM CDT on September 02, 2015 (GMT -0500)
Chester Park WX | | Change Station
CLOSE
Current Station
Personal Weather Station
Location: Duluth, MN
Elevation: 1040 ft
Nearby Weather Stations

Elev 1040 ft 46.81 °N, 92.08 °W | Updated 4 minutes ago

Mostly Cloudy
Mostly Cloudy
67.4 °F
Feels Like 67.4 °F
N
0.0
Wind Variable Wind from SW
Gusts 3.0 mph

Today
High -- | Low -- °F
--% Chance of Precip.
Yesterday
High -- | Low -- °F
Precip. -- in
6:28 AM 7:46 PM
Waning Gibbous, 79% visible
Pressure 29.99 in
Visibility 10.0 miles
Clouds Overcast 9000 ft
Dew Point 67 °F
Humidity 98%
Rainfall 0.94 in
Snow Depth Not available.
UV 2 out of 12
Pollen 9.00 out of 12
Air Quality Not available.
Flu Activity Not available.
METAR KDLH 021655Z 04004KT 10SM OVC090 20/18 A2999 RMK AO2 RAE32 PRESFR SLP153 P0002 T02000178
Pressure 29.99 in
Visibility 10.0 miles
Clouds Overcast 9000 ft
Dew Point 67 °F
Humidity 98%
Rainfall 0.94 in
Snow Depth Not available.
UV 2 out of 12
Pollen 9.00 out of 12
Air Quality Not available.
Flu Activity Not available.
METAR KDLH 021655Z 04004KT 10SM OVC090 20/18 A2999 RMK AO2 RAE32 PRESFR SLP153 P0002 T02000178

10-Day Weather Forecast

×

Almanac

Astronomy

Sep. 02, 2015 Rise Set
Actual Time
Civil Twilight
Nautical Twilight
Astronomical Twilight
Moon
Length of Visible Light
Length of Day
Tomorrow will be .
, % of the Moon is Illuminated

Today's Extremes

State Highs State Lows

Community

WunderPhotos

Upload Photos

1,851,785 photos uploaded!

WunderBlogs® & News

Nearby

Air Quality

  Air Quality AQ Index Pollutant
Not available.

Snow Depth

Station Depth Elevation

Earthquake Activity

City Distance Mag. Time & Date
Minimum magnitude displayed is 2.5.

Coastal Water Temperatures

Place Temperature

Stations

Nearby Weather Stations

Station Location Temp. Windchill Dew Point Humidity Wind Precip. Elev Updated Type